Time;durP1;ratioP1;P1;durP2;ratioP2;P2;SDS_P1;SDS_P2;PMS_P1;PMS_P2;Temp;Humidity;BMP_temperature;BMP_pressure;BME280_temperature;BME280_humidity;BME280_pressure;Samples;Min_cycle;Max_cycle;Signal;HPM_P1;HPM_P2
2021/05/13 00:01:48;;;;;;;;;;;16.50;99.90;;;;;;5092636;28;19991;-70
2021/05/13 00:04:15;;;;;;;;;;;16.50;99.90;;;;;;5092666;28;19916;-68
2021/05/13 00:06:41;;;;;;;;;;;16.60;99.90;;;;;;5092853;28;20355;-67
2021/05/13 00:09:12;;;;;;;;;;;16.70;99.90;;;;;;5092867;28;20394;-69
2021/05/13 00:11:42;;;;;;;;;;;16.70;99.90;;;;;;5091522;28;20278;-68
2021/05/13 00:14:08;;;;;;;;;;;16.80;99.90;;;;;;5092776;28;19909;-68
2021/05/13 00:16:36;;;;;;;;;;;16.80;99.90;;;;;;5092605;28;19916;-69
2021/05/13 00:19:07;;;;;;;;;;;16.90;99.90;;;;;;5092655;28;19916;-67
2021/05/13 00:21:34;;;;;;;;;;;17.00;99.90;;;;;;5092968;28;19931;-68
2021/05/13 00:24:01;;;;;;;;;;;17.00;99.90;;;;;;5092718;28;20271;-68
2021/05/13 00:26:41;;;;;;;;;;;17.10;99.90;;;;;;5091392;28;20373;-69
2021/05/13 00:29:09;;;;;;;;;;;17.20;99.90;;;;;;5092659;28;20351;-69
2021/05/13 00:31:36;;;;;;;;;;;17.20;99.90;;;;;;5092540;28;19908;-69
2021/05/13 00:34:03;;;;;;;;;;;17.30;99.90;;;;;;5092335;28;19912;-68
2021/05/13 00:36:30;;;;;;;;;;;17.30;99.90;;;;;;5092529;28;20396;-70
2021/05/13 00:38:57;;;;;;;;;;;17.40;99.90;;;;;;5092452;28;19909;-71
2021/05/13 00:41:24;;;;;;;;;;;17.40;99.90;;;;;;5092406;28;19919;-70
2021/05/13 00:43:51;;;;;;;;;;;17.50;99.90;;;;;;5092707;28;19927;-69
2021/05/13 00:46:18;;;;;;;;;;;17.60;99.90;;;;;;5095171;28;19943;-71
2021/05/13 00:48:46;;;;;;;;;;;17.70;99.90;;;;;;5095920;28;20381;-69
2021/05/13 00:51:13;;;;;;;;;;;17.70;99.90;;;;;;5096001;28;19999;-71
2021/05/13 00:53:47;;;;;;;;;;;17.70;99.90;;;;;;5096299;28;19951;-71
2021/05/13 00:56:14;;;;;;;;;;;17.80;99.90;;;;;;5096231;28;19957;-71
2021/05/13 00:58:45;;;;;;;;;;;17.90;99.90;;;;;;5096000;28;19908;-71
2021/05/13 01:01:16;;;;;;;;;;;18.10;99.90;;;;;;5096011;28;20006;-70
2021/05/13 01:03:44;;;;;;;;;;;18.40;99.90;;;;;;5095784;28;20273;-70
2021/05/13 01:06:12;;;;;;;;;;;18.60;99.90;;;;;;5095983;28;19952;-70
2021/05/13 01:08:39;;;;;;;;;;;18.90;99.90;;;;;;5095761;28;19908;-71
2021/05/13 01:11:09;;;;;;;;;;;19.20;99.90;;;;;;5095513;28;19908;-68
2021/05/13 01:13:49;;;;;;;;;;;19.70;99.90;;;;;;5095740;28;20366;-71
2021/05/13 01:16:45;;;;;;;;;;;19.70;99.90;;;;;;5095652;28;19908;-71
2021/05/13 01:19:14;;;;;;;;;;;19.90;99.90;;;;;;5095516;28;19912;-71
2021/05/13 01:21:41;;;;;;;;;;;19.80;99.90;;;;;;5095331;28;20227;-71
2021/05/13 01:24:08;;;;;;;;;;;19.70;99.90;;;;;;5095658;28;19913;-71
2021/05/13 01:26:35;;;;;;;;;;;19.40;99.90;;;;;;5095586;28;19995;-69
2021/05/13 01:29:02;;;;;;;;;;;19.20;99.90;;;;;;5095307;28;19915;-70
2021/05/13 01:31:29;;;;;;;;;;;19.10;99.90;;;;;;5095510;28;19999;-70
2021/05/13 01:33:55;;;;;;;;;;;19.10;99.90;;;;;;5095313;28;19908;-70
2021/05/13 01:36:22;;;;;;;;;;;19.20;99.90;;;;;;5095238;28;19912;-70
2021/05/13 01:38:49;;;;;;;;;;;19.20;99.90;;;;;;5095147;28;19912;-70
2021/05/13 01:41:16;;;;;;;;;;;19.10;99.90;;;;;;5095012;28;19908;-70
2021/05/13 01:43:42;;;;;;;;;;;19.10;99.90;;;;;;5095031;28;19927;-70
2021/05/13 01:46:09;;;;;;;;;;;19.10;99.90;;;;;;5095231;28;20355;-70
2021/05/13 01:48:36;;;;;;;;;;;19.00;99.90;;;;;;5094980;28;19923;-71
2021/05/13 01:51:03;;;;;;;;;;;18.90;99.90;;;;;;5094854;28;19916;-70
2021/05/13 01:53:29;;;;;;;;;;;19.00;99.90;;;;;;5094902;28;19915;-70
2021/05/13 01:55:56;;;;;;;;;;;19.00;99.90;;;;;;5099670;28;20003;-70
2021/05/13 01:58:23;;;;;;;;;;;19.10;99.90;;;;;;5100692;28;19942;-70
2021/05/13 02:00:50;;;;;;;;;;;19.10;99.90;;;;;;5099633;28;20362;-70
2021/05/13 02:03:17;;;;;;;;;;;19.20;99.90;;;;;;5100546;28;19916;-70
2021/05/13 02:05:44;;;;;;;;;;;19.20;99.90;;;;;;5102003;28;20004;-70
2021/05/13 02:08:11;;;;;;;;;;;19.20;99.90;;;;;;5101547;28;20328;-73
2021/05/13 02:10:38;;;;;;;;;;;19.10;99.90;;;;;;5102474;28;20013;-73
2021/05/13 02:13:04;;;;;;;;;;;19.10;99.90;;;;;;5102431;28;19908;-72
2021/05/13 02:15:31;;;;;;;;;;;19.00;99.90;;;;;;5102144;28;19936;-73
2021/05/13 02:17:58;;;;;;;;;;;18.90;99.90;;;;;;5101787;28;19912;-71
2021/05/13 02:20:25;;;;;;;;;;;19.00;99.90;;;;;;5102211;28;19908;-71
2021/05/13 02:22:54;;;;;;;;;;;19.00;99.90;;;;;;5100267;28;20306;-70
2021/05/13 02:25:21;;;;;;;;;;;19.00;99.90;;;;;;5094444;28;19908;-71
2021/05/13 02:27:47;;;;;;;;;;;19.10;99.90;;;;;;5094115;28;19908;-71
2021/05/13 02:30:14;;;;;;;;;;;19.20;99.90;;;;;;5094309;28;19986;-72
2021/05/13 02:32:41;;;;;;;;;;;19.20;99.90;;;;;;5093935;28;19940;-69
2021/05/13 02:35:09;;;;;;;;;;;19.20;99.90;;;;;;5094027;28;19908;-71
2021/05/13 02:37:35;;;;;;;;;;;19.20;99.90;;;;;;5094126;28;20365;-70
2021/05/13 02:40:03;;;;;;;;;;;19.20;99.90;;;;;;5094064;28;20374;-70
2021/05/13 02:42:30;;;;;;;;;;;19.30;99.90;;;;;;5093673;28;19919;-70
2021/05/13 02:44:57;;;;;;;;;;;19.40;99.90;;;;;;5093759;28;19915;-70
2021/05/13 02:47:23;;;;;;;;;;;19.50;99.90;;;;;;5093804;28;20196;-71
2021/05/13 02:49:50;;;;;;;;;;;19.60;99.90;;;;;;5094015;28;19994;-71
2021/05/13 02:52:17;;;;;;;;;;;19.50;99.90;;;;;;5093963;28;19915;-70
2021/05/13 02:54:43;;;;;;;;;;;19.50;99.90;;;;;;5093720;28;19984;-71
2021/05/13 02:57:11;;;;;;;;;;;19.50;99.90;;;;;;5093941;28;19972;-72
2021/05/13 02:59:46;;;;;;;;;;;19.50;99.90;;;;;;5093650;28;20009;-71
2021/05/13 03:02:13;;;;;;;;;;;19.70;99.90;;;;;;5093520;28;19920;-70
2021/05/13 03:04:41;;;;;;;;;;;19.60;99.90;;;;;;5093675;28;19947;-71
2021/05/13 03:07:08;;;;;;;;;;;19.60;99.90;;;;;;5093255;28;19915;-71
2021/05/13 03:09:38;;;;;;;;;;;19.70;99.90;;;;;;5092967;28;20255;-70
2021/05/13 03:12:06;;;;;;;;;;;19.70;99.90;;;;;;5093588;28;20013;-71
2021/05/13 03:14:33;;;;;;;;;;;19.60;99.90;;;;;;5093121;28;19916;-71
2021/05/13 03:17:01;;;;;;;;;;;19.60;99.90;;;;;;5092996;28;19996;-71
2021/05/13 03:19:41;;;;;;;;;;;19.80;99.90;;;;;;5093482;28;20038;-70
2021/05/13 03:22:11;;;;;;;;;;;19.80;99.90;;;;;;5093381;28;19919;-71
2021/05/13 03:24:49;;;;;;;;;;;19.70;99.90;;;;;;5093210;28;19912;-70
2021/05/13 03:29:51;;;;;;;;;;;19.70;99.90;;;;;;5093352;28;19908;-69
2021/05/13 03:32:18;;;;;;;;;;;19.70;99.90;;;;;;5093143;28;19946;-72
2021/05/13 03:34:45;;;;;;;;;;;19.70;99.90;;;;;;5093058;28;20267;-70
2021/05/13 03:37:12;;;;;;;;;;;19.90;99.90;;;;;;5093121;28;19999;-69
2021/05/13 03:39:38;;;;;;;;;;;20.10;99.90;;;;;;5093148;28;19951;-71
2021/05/13 03:42:05;;;;;;;;;;;20.20;99.90;;;;;;5092864;28;19920;-70
2021/05/13 03:44:32;;;;;;;;;;;20.20;99.90;;;;;;5093370;28;19955;-71
2021/05/13 03:46:59;;;;;;;;;;;20.30;99.90;;;;;;5092831;28;19908;-70
2021/05/13 03:49:26;;;;;;;;;;;20.50;99.90;;;;;;5093176;28;19915;-72
2021/05/13 03:51:52;;;;;;;;;;;20.30;99.90;;;;;;5093151;28;19919;-71
2021/05/13 03:54:19;;;;;;;;;;;20.30;99.90;;;;;;5093193;28;19956;-72
2021/05/13 03:56:45;;;;;;;;;;;20.40;99.90;;;;;;5093078;28;19908;-71
2021/05/13 03:59:15;;;;;;;;;;;20.50;99.90;;;;;;5093089;28;19965;-71
2021/05/13 04:02:02;;;;;;;;;;;20.50;99.90;;;;;;5092763;28;19912;-70
2021/05/13 04:04:29;;;;;;;;;;;20.50;99.90;;;;;;5092865;28;19992;-72
2021/05/13 04:06:56;;;;;;;;;;;20.40;99.90;;;;;;5092724;28;20339;-72
2021/05/13 04:09:23;;;;;;;;;;;20.30;99.90;;;;;;5092746;28;20273;-72
2021/05/13 04:11:50;;;;;;;;;;;20.10;99.90;;;;;;5092934;28;19912;-72
2021/05/13 04:14:17;;;;;;;;;;;20.10;99.90;;;;;;5092826;28;20010;-71
2021/05/13 04:16:51;;;;;;;;;;;20.10;99.90;;;;;;5092305;28;20428;-70
2021/05/13 04:19:17;;;;;;;;;;;20.10;99.90;;;;;;5094044;28;19916;-71
2021/05/13 04:21:44;;;;;;;;;;;20.10;99.90;;;;;;5097021;28;20259;-71
2021/05/13 04:24:13;;;;;;;;;;;20.00;99.90;;;;;;5096968;28;19920;-71
2021/05/13 04:26:40;;;;;;;;;;;20.00;99.90;;;;;;5096755;28;19923;-71
2021/05/13 04:29:10;;;;;;;;;;;20.10;99.90;;;;;;5096472;28;19915;-72
2021/05/13 04:31:37;;;;;;;;;;;20.10;99.90;;;;;;5096531;28;20002;-71
2021/05/13 04:34:04;;;;;;;;;;;20.10;99.90;;;;;;5096522;28;20003;-70
2021/05/13 04:36:31;;;;;;;;;;;20.10;99.90;;;;;;5096469;28;20373;-71
2021/05/13 04:38:57;;;;;;;;;;;20.00;99.90;;;;;;5096079;28;19985;-71
2021/05/13 04:41:31;;;;;;;;;;;20.00;99.90;;;;;;5096014;28;19922;-71
2021/05/13 04:43:58;;;;;;;;;;;19.90;99.90;;;;;;5096341;28;20023;-70
2021/05/13 04:46:28;;;;;;;;;;;20.00;99.90;;;;;;5096304;28;19931;-71
2021/05/13 04:51:32;;;;;;;;;;;20.20;99.90;;;;;;5096359;28;19953;-71
2021/05/13 04:53:59;;;;;;;;;;;20.20;99.90;;;;;;5096410;28;19919;-71
2021/05/13 04:56:26;;;;;;;;;;;20.10;99.90;;;;;;5096168;28;20378;-71
2021/05/13 04:58:53;;;;;;;;;;;20.30;99.90;;;;;;5095997;28;20355;-71
2021/05/13 05:01:20;;;;;;;;;;;20.30;99.90;;;;;;5095866;28;19945;-69
2021/05/13 05:03:47;;;;;;;;;;;20.20;99.90;;;;;;5096008;28;19924;-70
2021/05/13 05:06:15;;;;;;;;;;;20.30;99.90;;;;;;5095992;28;19908;-71
2021/05/13 05:08:42;;;;;;;;;;;20.30;99.90;;;;;;5095816;28;19914;-70
2021/05/13 05:11:10;;;;;;;;;;;20.40;99.90;;;;;;5095809;28;20243;-71
2021/05/13 05:13:37;;;;;;;;;;;20.30;99.90;;;;;;5095619;28;19915;-71
2021/05/13 05:16:04;;;;;;;;;;;20.10;99.90;;;;;;5095647;28;19908;-70
2021/05/13 05:18:30;;;;;;;;;;;20.00;99.90;;;;;;5095793;28;19961;-70
2021/05/13 05:20:57;;;;;;;;;;;20.00;99.90;;;;;;5095457;28;20003;-71
2021/05/13 05:23:25;;;;;;;;;;;19.90;99.90;;;;;;5095571;28;19916;-70
2021/05/13 05:25:52;;;;;;;;;;;19.90;99.90;;;;;;5095621;28;20315;-71
2021/05/13 05:28:18;;;;;;;;;;;19.90;99.90;;;;;;5095514;28;19962;-70
2021/05/13 05:30:45;;;;;;;;;;;20.00;99.90;;;;;;5094501;28;20281;-71
2021/05/13 05:33:12;;;;;;;;;;;19.90;99.90;;;;;;5095441;28;20010;-70
2021/05/13 05:35:39;;;;;;;;;;;20.00;99.90;;;;;;5095318;28;20350;-70
2021/05/13 05:38:08;;;;;;;;;;;20.10;99.90;;;;;;5095272;28;19956;-70
2021/05/13 05:40:35;;;;;;;;;;;20.00;99.90;;;;;;5093653;28;19957;-71
2021/05/13 05:43:02;;;;;;;;;;;20.00;99.90;;;;;;5094939;28;19920;-71
2021/05/13 05:45:28;;;;;;;;;;;20.00;99.90;;;;;;5095239;28;19953;-70
2021/05/13 05:48:05;;;;;;;;;;;20.00;99.90;;;;;;5095233;28;19930;-70
2021/05/13 05:50:33;;;;;;;;;;;20.00;99.90;;;;;;5095169;28;20244;-71
2021/05/13 05:53:00;;;;;;;;;;;19.90;99.90;;;;;;5094008;28;19908;-71
2021/05/13 05:55:27;;;;;;;;;;;19.90;99.90;;;;;;5095063;28;19908;-72
2021/05/13 05:57:54;;;;;;;;;;;19.90;99.90;;;;;;5094850;28;20041;-70
2021/05/13 06:00:21;;;;;;;;;;;19.90;99.90;;;;;;5094888;28;19954;-71
2021/05/13 06:02:48;;;;;;;;;;;19.80;99.90;;;;;;5094420;28;20004;-72
2021/05/13 06:05:15;;;;;;;;;;;19.80;99.90;;;;;;5094803;28;19923;-71
2021/05/13 06:07:42;;;;;;;;;;;19.80;99.90;;;;;;5094905;28;19916;-72
2021/05/13 06:10:09;;;;;;;;;;;19.80;99.90;;;;;;5094703;28;19909;-71
2021/05/13 06:12:36;;;;;;;;;;;19.90;99.90;;;;;;5094682;28;20362;-71
2021/05/13 06:15:07;;;;;;;;;;;19.90;99.90;;;;;;5094552;28;19963;-71
2021/05/13 06:17:33;;;;;;;;;;;19.90;99.90;;;;;;5094370;28;19966;-71
2021/05/13 06:20:03;;;;;;;;;;;19.70;99.90;;;;;;5094658;28;19909;-71
2021/05/13 06:22:30;;;;;;;;;;;19.70;99.90;;;;;;5094542;28;19948;-71
2021/05/13 06:24:57;;;;;;;;;;;19.70;99.90;;;;;;5094185;28;20385;-72
2021/05/13 06:27:23;;;;;;;;;;;19.70;99.90;;;;;;5094467;28;19916;-71
2021/05/13 06:29:50;;;;;;;;;;;19.70;99.90;;;;;;5093135;28;19908;-71
2021/05/13 06:32:17;;;;;;;;;;;19.70;99.90;;;;;;5094426;28;19908;-72
2021/05/13 06:34:44;;;;;;;;;;;19.70;99.90;;;;;;5094263;28;19916;-72
2021/05/13 06:37:11;;;;;;;;;;;19.70;99.90;;;;;;5094258;28;19958;-72
2021/05/13 06:39:37;;;;;;;;;;;19.70;99.90;;;;;;5094040;28;19915;-72
2021/05/13 06:42:05;;;;;;;;;;;19.50;99.90;;;;;;5093615;28;19963;-71
2021/05/13 06:44:31;;;;;;;;;;;19.50;99.90;;;;;;5093613;28;20358;-71
2021/05/13 06:46:58;;;;;;;;;;;19.50;99.90;;;;;;5093565;28;19912;-71
2021/05/13 06:49:25;;;;;;;;;;;19.40;99.90;;;;;;5093967;28;19994;-71
2021/05/13 06:51:52;;;;;;;;;;;19.30;99.90;;;;;;5094009;28;19915;-72
2021/05/13 06:54:19;;;;;;;;;;;19.20;99.90;;;;;;5093956;28;20266;-71
2021/05/13 06:56:47;;;;;;;;;;;19.10;99.90;;;;;;5093658;28;19908;-72
2021/05/13 06:59:14;;;;;;;;;;;19.10;99.90;;;;;;5093843;28;19977;-71
2021/05/13 07:01:40;;;;;;;;;;;19.10;99.90;;;;;;5093590;28;19931;-72
2021/05/13 07:04:07;;;;;;;;;;;19.10;99.90;;;;;;5093543;28;19939;-71
2021/05/13 07:06:34;;;;;;;;;;;19.10;99.90;;;;;;5093519;28;19908;-72
2021/05/13 07:09:01;;;;;;;;;;;19.10;99.90;;;;;;5093422;28;19908;-72
2021/05/13 07:11:28;;;;;;;;;;;19.10;99.90;;;;;;5093569;28;19952;-72
2021/05/13 07:13:54;;;;;;;;;;;19.10;99.90;;;;;;5076426;28;19909;-72
2021/05/13 07:16:21;;;;;;;;;;;19.10;99.90;;;;;;5073100;28;19909;-71
2021/05/13 07:18:48;;;;;;;;;;;19.00;99.90;;;;;;5072382;28;20294;-72
2021/05/13 07:21:14;;;;;;;;;;;19.10;99.90;;;;;;5073042;28;19908;-72
2021/05/13 07:23:44;;;;;;;;;;;19.10;99.90;;;;;;5105525;28;19917;-72
2021/05/13 07:26:11;;;;;;;;;;;19.00;99.90;;;;;;5073070;28;19908;-72
2021/05/13 07:28:40;;;;;;;;;;;19.00;99.90;;;;;;5073026;28;19912;-72
2021/05/13 07:31:07;;;;;;;;;;;19.10;99.90;;;;;;5072726;28;19916;-72
2021/05/13 07:33:35;;;;;;;;;;;19.10;99.90;;;;;;5072577;28;19913;-74
2021/05/13 07:36:03;;;;;;;;;;;19.10;99.90;;;;;;5072868;28;20294;-72
2021/05/13 07:38:30;;;;;;;;;;;19.10;99.90;;;;;;5072950;28;19956;-72
2021/05/13 07:40:59;;;;;;;;;;;19.00;99.90;;;;;;5070387;28;19919;-73
2021/05/13 07:43:26;;;;;;;;;;;18.90;99.90;;;;;;5070711;28;19973;-72
2021/05/13 07:45:53;;;;;;;;;;;18.90;99.90;;;;;;5070686;28;19931;-72
2021/05/13 07:48:19;;;;;;;;;;;18.90;99.90;;;;;;5070405;28;19935;-72
2021/05/13 07:50:46;;;;;;;;;;;19.00;99.90;;;;;;5070518;28;20228;-72
2021/05/13 07:53:14;;;;;;;;;;;19.00;99.90;;;;;;5070239;28;19909;-73
2021/05/13 07:55:40;;;;;;;;;;;18.90;99.90;;;;;;5070370;28;19912;-72
2021/05/13 07:58:08;;;;;;;;;;;18.90;99.90;;;;;;5070518;28;19909;-72
2021/05/13 08:00:34;;;;;;;;;;;18.90;99.90;;;;;;5070484;28;19915;-72
2021/05/13 08:03:01;;;;;;;;;;;18.90;99.90;;;;;;5069673;28;19917;-72
2021/05/13 08:05:28;;;;;;;;;;;18.90;99.90;;;;;;5070615;28;19935;-72
2021/05/13 08:07:54;;;;;;;;;;;18.90;99.90;;;;;;5069912;28;19909;-73
2021/05/13 08:10:21;;;;;;;;;;;18.80;99.90;;;;;;5070391;28;19912;-72
2021/05/13 08:12:48;;;;;;;;;;;18.70;99.90;;;;;;5102785;28;19912;-72
2021/05/13 08:15:15;;;;;;;;;;;18.70;99.90;;;;;;5070407;28;19908;-73
2021/05/13 08:17:42;;;;;;;;;;;18.60;99.90;;;;;;5070002;28;19912;-72
2021/05/13 08:20:11;;;;;;;;;;;18.60;99.90;;;;;;5070184;28;19912;-72
2021/05/13 08:22:38;;;;;;;;;;;18.60;99.90;;;;;;5070209;28;20298;-73
2021/05/13 08:25:05;;;;;;;;;;;18.50;99.90;;;;;;5070360;28;19966;-72
2021/05/13 08:27:32;;;;;;;;;;;18.50;99.90;;;;;;5070481;28;20003;-72
2021/05/13 08:29:59;;;;;;;;;;;18.50;99.90;;;;;;5070294;28;19909;-73
2021/05/13 08:32:26;;;;;;;;;;;18.50;99.90;;;;;;5069592;28;19936;-72
2021/05/13 08:34:53;;;;;;;;;;;18.50;99.90;;;;;;5070022;28;20278;-72
2021/05/13 08:37:20;;;;;;;;;;;18.50;99.90;;;;;;5070186;28;19958;-72
2021/05/13 08:39:47;;;;;;;;;;;18.60;99.90;;;;;;5070289;28;19976;-73
2021/05/13 08:42:14;;;;;;;;;;;18.60;99.90;;;;;;5070045;28;19920;-73
2021/05/13 08:44:45;;;;;;;;;;;18.70;99.90;;;;;;5070097;28;19915;-72
2021/05/13 08:47:12;;;;;;;;;;;18.80;99.80;;;;;;5069574;28;20003;-71
2021/05/13 08:49:39;;;;;;;;;;;18.80;99.60;;;;;;5070189;28;19909;-72
2021/05/13 08:52:09;;;;;;;;;;;18.70;99.20;;;;;;5070110;28;20362;-72
2021/05/13 08:54:37;;;;;;;;;;;18.70;98.60;;;;;;5070341;28;19912;-73
2021/05/13 08:57:03;;;;;;;;;;;18.70;98.10;;;;;;5069768;28;20588;-72
2021/05/13 08:59:30;;;;;;;;;;;18.70;98.10;;;;;;5069856;28;20371;-72
2021/05/13 09:01:57;;;;;;;;;;;18.60;98.30;;;;;;5068534;28;19912;-72
2021/05/13 09:04:24;;;;;;;;;;;18.50;97.80;;;;;;5068943;28;20359;-73
2021/05/13 09:06:51;;;;;;;;;;;18.50;97.00;;;;;;5073647;28;19962;-72
2021/05/13 09:09:18;;;;;;;;;;;18.50;97.20;;;;;;5075894;28;19956;-72
2021/05/13 09:11:53;;;;;;;;;;;18.50;97.40;;;;;;5075800;28;19908;-72
2021/05/13 09:14:21;;;;;;;;;;;18.40;97.80;;;;;;5075707;28;19909;-73
2021/05/13 09:16:49;;;;;;;;;;;18.40;97.20;;;;;;5075224;28;19954;-72
2021/05/13 09:19:19;;;;;;;;;;;18.30;97.50;;;;;;5075530;28;19915;-72
2021/05/13 09:21:56;;;;;;;;;;;18.30;97.70;;;;;;5075538;28;20278;-72
2021/05/13 09:24:41;;;;;;;;;;;18.20;97.80;;;;;;5075512;28;19921;-72
2021/05/13 09:27:14;;;;;;;;;;;18.20;98.10;;;;;;5075086;28;19908;-72
2021/05/13 09:29:41;;;;;;;;;;;18.10;98.40;;;;;;5075085;28;19909;-73
2021/05/13 09:32:18;;;;;;;;;;;18.00;98.80;;;;;;5075324;28;19908;-72
2021/05/13 09:34:45;;;;;;;;;;;18.00;99.00;;;;;;5075205;28;20023;-72
2021/05/13 09:37:12;;;;;;;;;;;18.00;99.40;;;;;;5075230;28;19950;-72
2021/05/13 09:39:46;;;;;;;;;;;17.90;99.70;;;;;;5075219;28;19916;-72
2021/05/13 09:42:15;;;;;;;;;;;17.80;99.40;;;;;;5075011;28;19924;-72
2021/05/13 09:44:42;;;;;;;;;;;17.80;99.90;;;;;;5074999;28;20497;-72
2021/05/13 09:47:16;;;;;;;;;;;17.80;99.90;;;;;;5075021;28;19912;-72
2021/05/13 09:50:02;;;;;;;;;;;17.80;99.90;;;;;;5074905;28;19935;-72
2021/05/13 09:52:57;;;;;;;;;;;17.80;99.90;;;;;;5074993;28;20273;-72
2021/05/13 09:55:31;;;;;;;;;;;17.80;98.80;;;;;;5074246;28;19944;-72
2021/05/13 09:58:04;;;;;;;;;;;17.90;98.70;;;;;;5074951;28;19908;-72
2021/05/13 10:00:31;;;;;;;;;;;17.90;98.30;;;;;;5074709;28;19908;-72
2021/05/13 10:02:58;;;;;;;;;;;18.00;98.90;;;;;;5074406;28;19912;-73
2021/05/13 10:05:28;;;;;;;;;;;18.00;97.70;;;;;;5074724;28;19908;-72
2021/05/13 10:07:55;;;;;;;;;;;18.00;96.70;;;;;;5074661;28;20403;-72
2021/05/13 10:10:22;;;;;;;;;;;18.00;96.70;;;;;;5074691;28;19916;-72
2021/05/13 10:12:50;;;;;;;;;;;18.10;96.40;;;;;;5074312;28;19962;-72
2021/05/13 10:15:17;;;;;;;;;;;18.10;96.60;;;;;;5074243;28;19912;-72
2021/05/13 10:17:45;;;;;;;;;;;18.00;97.10;;;;;;5074333;28;19959;-72
2021/05/13 10:20:14;;;;;;;;;;;18.10;97.20;;;;;;5074311;28;19915;-72
2021/05/13 10:22:43;;;;;;;;;;;18.10;95.40;;;;;;5074406;28;20282;-71
2021/05/13 10:25:29;;;;;;;;;;;18.00;96.30;;;;;;5074417;28;19913;-72
2021/05/13 10:27:55;;;;;;;;;;;18.10;95.00;;;;;;5074503;28;19908;-72
2021/05/13 10:30:24;;;;;;;;;;;18.10;96.00;;;;;;5074028;28;20007;-72
2021/05/13 10:33:06;;;;;;;;;;;18.10;95.20;;;;;;5074000;28;19916;-71
2021/05/13 10:35:33;;;;;;;;;;;18.10;95.70;;;;;;5074078;28;19965;-72
2021/05/13 10:38:06;;;;;;;;;;;18.10;96.30;;;;;;5074047;28;20329;-71
2021/05/13 10:43:13;;;;;;;;;;;18.00;95.60;;;;;;5073843;28;19928;-72
2021/05/13 10:45:41;;;;;;;;;;;18.00;95.80;;;;;;5073897;28;19915;-72
2021/05/13 10:48:20;;;;;;;;;;;18.00;95.90;;;;;;5074001;28;20038;-72
2021/05/13 10:50:51;;;;;;;;;;;18.00;96.10;;;;;;5073593;28;19916;-72
2021/05/13 10:56:24;;;;;;;;;;;18.00;96.10;;;;;;5073699;28;19909;-72
2021/05/13 10:58:53;;;;;;;;;;;17.90;97.40;;;;;;5072901;28;19909;-72
2021/05/13 11:01:29;;;;;;;;;;;17.90;96.80;;;;;;5073832;28;20035;-72
2021/05/13 11:04:13;;;;;;;;;;;17.90;97.20;;;;;;5073635;28;19936;-71
2021/05/13 11:06:44;;;;;;;;;;;17.80;97.10;;;;;;5073560;28;19915;-72
2021/05/13 11:09:10;;;;;;;;;;;17.70;97.00;;;;;;5073410;28;20438;-72
2021/05/13 11:12:06;;;;;;;;;;;17.70;96.90;;;;;;5073505;28;19944;-72
2021/05/13 11:14:32;;;;;;;;;;;17.60;97.70;;;;;;5067982;28;19913;-72
2021/05/13 11:17:04;;;;;;;;;;;17.40;97.60;;;;;;5073203;28;19909;-71
2021/05/13 11:19:31;;;;;;;;;;;17.40;97.50;;;;;;5073242;28;19996;-72
2021/05/13 11:22:01;;;;;;;;;;;17.30;97.80;;;;;;5073402;28;19908;-71
2021/05/13 11:24:46;;;;;;;;;;;17.30;98.10;;;;;;5073464;28;19916;-72
2021/05/13 11:27:13;;;;;;;;;;;17.20;98.10;;;;;;5073251;28;19920;-72
2021/05/13 11:29:43;;;;;;;;;;;17.20;98.20;;;;;;5072207;28;20288;-72
2021/05/13 11:32:10;;;;;;;;;;;17.10;98.70;;;;;;5073143;28;20007;-73
2021/05/13 11:34:41;;;;;;;;;;;17.00;99.20;;;;;;5073050;28;20291;-72
2021/05/13 11:37:07;;;;;;;;;;;17.10;99.90;;;;;;5073144;28;20369;-72
2021/05/13 11:39:34;;;;;;;;;;;17.10;99.60;;;;;;5073120;28;19916;-72
2021/05/13 11:42:01;;;;;;;;;;;17.10;99.30;;;;;;5072950;28;20398;-71
2021/05/13 11:44:28;;;;;;;;;;;17.00;99.30;;;;;;5072489;28;20353;-71
2021/05/13 11:46:55;;;;;;;;;;;17.00;99.10;;;;;;5072791;28;20070;-71
2021/05/13 11:49:21;;;;;;;;;;;17.00;99.10;;;;;;5072647;28;19909;-72
2021/05/13 11:51:48;;;;;;;;;;;17.00;99.00;;;;;;5072892;28;19909;-72
2021/05/13 11:54:15;;;;;;;;;;;17.00;99.40;;;;;;5072676;28;19962;-71
2021/05/13 11:56:43;;;;;;;;;;;17.00;98.90;;;;;;5072926;28;19916;-72
2021/05/13 11:59:11;;;;;;;;;;;17.00;99.10;;;;;;5072674;28;19909;-72
2021/05/13 12:01:44;;;;;;;;;;;17.00;99.80;;;;;;5072912;28;19908;-72
2021/05/13 12:04:22;;;;;;;;;;;17.00;99.60;;;;;;5072684;28;20322;-72
2021/05/13 12:06:57;;;;;;;;;;;17.00;99.50;;;;;;5072571;28;20003;-71
2021/05/13 12:09:24;;;;;;;;;;;16.90;99.30;;;;;;5072862;28;19909;-72
2021/05/13 12:11:52;;;;;;;;;;;16.90;99.60;;;;;;5072667;28;19959;-72
2021/05/13 12:14:24;;;;;;;;;;;16.90;99.30;;;;;;5076262;28;19939;-73
2021/05/13 12:17:01;;;;;;;;;;;16.80;99.10;;;;;;5083652;28;19971;-72
2021/05/13 12:19:28;;;;;;;;;;;16.90;99.90;;;;;;5093000;28;19909;-71
2021/05/13 12:21:59;;;;;;;;;;;16.90;99.10;;;;;;5092867;28;19908;-72
2021/05/13 12:24:27;;;;;;;;;;;16.80;99.30;;;;;;5092855;28;19974;-72
2021/05/13 12:26:54;;;;;;;;;;;16.80;99.80;;;;;;5092476;28;19944;-71
2021/05/13 12:29:20;;;;;;;;;;;16.80;99.80;;;;;;5092856;28;20330;-71
2021/05/13 12:31:48;;;;;;;;;;;16.80;99.90;;;;;;5092801;28;19914;-71
2021/05/13 12:34:34;;;;;;;;;;;16.80;99.50;;;;;;5092795;28;19908;-72
2021/05/13 12:37:02;;;;;;;;;;;16.70;99.60;;;;;;5092452;28;19908;-71
2021/05/13 12:39:29;;;;;;;;;;;16.70;99.90;;;;;;5092915;28;20282;-72
2021/05/13 12:41:56;;;;;;;;;;;16.70;99.90;;;;;;5094763;28;20361;-72
2021/05/13 12:44:26;;;;;;;;;;;16.70;99.90;;;;;;5096474;28;19927;-72
2021/05/13 12:46:54;;;;;;;;;;;16.70;99.70;;;;;;5096112;28;19919;-71
2021/05/13 12:49:25;;;;;;;;;;;16.60;99.90;;;;;;5094934;28;19908;-70
2021/05/13 12:52:01;;;;;;;;;;;16.60;99.90;;;;;;5076335;28;19955;-72
2021/05/13 12:54:30;;;;;;;;;;;16.60;99.50;;;;;;5076118;28;19912;-72
2021/05/13 12:57:16;;;;;;;;;;;16.60;99.20;;;;;;5075795;28;19962;-71
2021/05/13 12:59:52;;;;;;;;;;;16.60;99.90;;;;;;5075316;28;19923;-72
2021/05/13 13:02:25;;;;;;;;;;;16.50;99.50;;;;;;5075718;28;19930;-72
2021/05/13 13:04:52;;;;;;;;;;;16.60;99.40;;;;;;5075718;28;19916;-72
2021/05/13 13:07:20;;;;;;;;;;;16.50;99.30;;;;;;5075513;28;19909;-72
2021/05/13 13:09:47;;;;;;;;;;;16.50;99.50;;;;;;5075792;28;20007;-72
2021/05/13 13:12:15;;;;;;;;;;;16.50;99.90;;;;;;5075686;28;19999;-72
2021/05/13 13:14:47;;;;;;;;;;;16.50;99.90;;;;;;5075580;28;19909;-71
2021/05/13 13:17:22;;;;;;;;;;;16.50;99.60;;;;;;5075853;28;19908;-72
2021/05/13 13:20:02;;;;;;;;;;;16.50;99.30;;;;;;5075637;28;19908;-72
2021/05/13 13:22:28;;;;;;;;;;;16.50;99.70;;;;;;5075530;28;19917;-72
2021/05/13 13:25:12;;;;;;;;;;;16.50;99.40;;;;;;5075310;28;19916;-72
2021/05/13 13:27:42;;;;;;;;;;;16.50;99.20;;;;;;5075509;28;19916;-72
2021/05/13 13:30:16;;;;;;;;;;;16.50;99.40;;;;;;5075412;28;19947;-72
2021/05/13 13:32:43;;;;;;;;;;;16.50;99.90;;;;;;5075159;28;19971;-70
2021/05/13 13:35:12;;;;;;;;;;;16.50;99.20;;;;;;5075339;28;19908;-71
2021/05/13 13:37:39;;;;;;;;;;;16.50;99.80;;;;;;5075428;28;19940;-71
2021/05/13 13:40:06;;;;;;;;;;;16.50;99.30;;;;;;5075195;28;19922;-70
2021/05/13 13:42:34;;;;;;;;;;;16.50;99.90;;;;;;5074899;28;20329;-70
2021/05/13 13:45:01;;;;;;;;;;;16.50;99.70;;;;;;5074895;28;19908;-70
2021/05/13 13:47:27;;;;;;;;;;;16.50;99.90;;;;;;5075045;28;20359;-70
2021/05/13 13:49:54;;;;;;;;;;;16.60;99.30;;;;;;5075074;28;19908;-71
2021/05/13 13:52:21;;;;;;;;;;;16.60;99.30;;;;;;5074561;28;19950;-72
2021/05/13 13:54:47;;;;;;;;;;;16.60;99.20;;;;;;5075926;28;20006;-72
2021/05/13 13:57:14;;;;;;;;;;;16.60;99.20;;;;;;5074909;28;19981;-72
2021/05/13 13:59:41;;;;;;;;;;;16.70;98.90;;;;;;5074783;28;19916;-72
2021/05/13 14:02:07;;;;;;;;;;;16.70;99.00;;;;;;5074645;28;20378;-72
2021/05/13 14:04:34;;;;;;;;;;;16.70;99.30;;;;;;5074672;28;19921;-72
2021/05/13 14:07:01;;;;;;;;;;;16.70;98.80;;;;;;5074571;28;19991;-72
2021/05/13 14:09:27;;;;;;;;;;;16.70;98.90;;;;;;5074700;28;19954;-73
2021/05/13 14:11:54;;;;;;;;;;;16.60;99.00;;;;;;5074650;28;19995;-72
2021/05/13 14:14:21;;;;;;;;;;;16.70;98.60;;;;;;5074395;28;19940;-72
2021/05/13 14:16:47;;;;;;;;;;;16.60;99.00;;;;;;5074270;28;19908;-72
2021/05/13 14:19:14;;;;;;;;;;;16.60;98.20;;;;;;5074507;28;19995;-73
2021/05/13 14:21:41;;;;;;;;;;;16.60;99.10;;;;;;5074394;28;19909;-72
2021/05/13 14:24:08;;;;;;;;;;;16.70;99.00;;;;;;5074290;28;19916;-71
2021/05/13 14:26:34;;;;;;;;;;;16.60;98.70;;;;;;5074303;28;19943;-71
2021/05/13 14:29:01;;;;;;;;;;;16.60;98.80;;;;;;5073849;28;19916;-71
2021/05/13 14:31:28;;;;;;;;;;;16.50;98.40;;;;;;5074104;28;19908;-71
2021/05/13 14:33:54;;;;;;;;;;;16.60;98.50;;;;;;5074280;28;19955;-71
2021/05/13 14:36:21;;;;;;;;;;;16.50;98.00;;;;;;5074083;28;19908;-72